Time;durP1;ratioP1;P1;durP2;ratioP2;P2;SDS_P1;SDS_P2;PMS_P1;PMS_P2;Temp;Humidity;BMP_temperature;BMP_pressure;BME280_temperature;BME280_humidity;BME280_pressure;Samples;Min_cycle;Max_cycle;Signal;HPM_P1;HPM_P2
2022/01/08 00:02:13;;;;;;;8.00;4.28;;;;;;;;;;6212547;28;20161;-81
2022/01/08 00:05:14;;;;;;;7.35;3.97;;;;;;;;;;6172074;28;20125;-84
2022/01/08 00:08:16;;;;;;;5.78;3.40;;;;;;;;;;6225726;28;20415;-83
2022/01/08 00:11:20;;;;;;;6.53;3.00;;;;;;;;;;6228292;23;20072;-87
2022/01/08 00:14:24;;;;;;;8.43;2.65;;;;;;;;;;6213581;28;20530;-86
2022/01/08 00:17:26;;;;;;;5.57;2.63;;;;;;;;;;6245319;28;20049;-86
2022/01/08 00:20:28;;;;;;;4.20;2.22;;;;;;;;;;6244706;28;20059;-87
2022/01/08 00:23:30;;;;;;;3.63;2.10;;;;;;;;;;6226996;28;20041;-87
2022/01/08 00:26:32;;;;;;;3.15;2.17;;;;;;;;;;6242987;28;20048;-87
2022/01/08 00:29:33;;;;;;;2.58;1.70;;;;;;;;;;6244839;28;20095;-85
2022/01/08 00:32:35;;;;;;;5.07;1.65;;;;;;;;;;6250438;28;20587;-86
2022/01/08 00:35:37;;;;;;;3.40;1.40;;;;;;;;;;6243405;28;20069;-86
2022/01/08 00:38:39;;;;;;;1.60;1.10;;;;;;;;;;6225334;28;20120;-87
2022/01/08 00:41:40;;;;;;;5.25;1.58;;;;;;;;;;6218732;28;20415;-87
2022/01/08 00:44:42;;;;;;;2.28;1.30;;;;;;;;;;6233199;28;20065;-88
2022/01/08 00:47:44;;;;;;;5.53;1.30;;;;;;;;;;6238050;28;20045;-87
2022/01/08 00:50:46;;;;;;;3.85;1.30;;;;;;;;;;6240116;28;20107;-86
2022/01/08 00:53:48;;;;;;;2.80;1.50;;;;;;;;;;6240767;28;20187;-87
2022/01/08 00:56:50;;;;;;;3.83;1.58;;;;;;;;;;6232129;28;20060;-86
2022/01/08 00:59:52;;;;;;;3.13;1.90;;;;;;;;;;6221147;28;20135;-87
2022/01/08 01:02:53;;;;;;;6.13;2.00;;;;;;;;;;6218144;28;20130;-87
2022/01/08 01:05:55;;;;;;;5.13;2.00;;;;;;;;;;6236733;28;20045;-86
2022/01/08 01:08:57;;;;;;;5.03;2.95;;;;;;;;;;6230926;28;20053;-86
2022/01/08 01:11:59;;;;;;;5.03;2.70;;;;;;;;;;6231178;28;20133;-87
2022/01/08 01:15:00;;;;;;;8.98;3.13;;;;;;;;;;6231830;28;20046;-86
2022/01/08 01:18:02;;;;;;;9.68;5.07;;;;;;;;;;6238018;28;20061;-86
2022/01/08 01:21:04;;;;;;;16.45;6.82;;;;;;;;;;6238520;28;20045;-86
2022/01/08 01:24:13;;;;;;;14.05;5.03;;;;;;;;;;6234296;28;20053;-85
2022/01/08 01:47:01;;;;;;;7.07;3.08;;;;;;;;;;6240743;28;20064;-87
2022/01/08 01:50:06;;;;;;;8.40;3.63;;;;;;;;;;6240778;28;20507;-86
2022/01/08 01:53:07;;;;;;;6.13;3.20;;;;;;;;;;6241597;28;20118;-85
2022/01/08 01:56:09;;;;;;;6.95;3.40;;;;;;;;;;6240030;28;20053;-87
2022/01/08 01:59:12;;;;;;;6.88;2.78;;;;;;;;;;6242095;28;20052;-86
2022/01/08 02:02:14;;;;;;;;;;;;;;;;;;6225677;28;20052;-87
2022/01/08 02:05:16;;;;;;;3.42;2.35;;;;;;;;;;6217984;28;19925;-86
2022/01/08 02:08:17;;;;;;;7.07;3.90;;;;;;;;;;6237053;28;20050;-85
2022/01/08 02:11:20;;;;;;;8.65;3.22;;;;;;;;;;6214993;28;20725;-86
2022/01/08 02:14:30;;;;;;;4.28;2.42;;;;;;;;;;6230744;28;20132;-86
2022/01/08 02:17:31;;;;;;;5.32;2.88;;;;;;;;;;6236757;28;20109;-86
2022/01/08 02:20:33;;;;;;;5.85;2.88;;;;;;;;;;6242110;28;20088;-86
2022/01/08 02:23:35;;;;;;;7.28;3.00;;;;;;;;;;6230762;28;20081;-86
2022/01/08 02:26:37;;;;;;;7.95;3.20;;;;;;;;;;6214558;28;20053;-87
2022/01/08 02:29:38;;;;;;;5.95;2.90;;;;;;;;;;6222363;28;20049;-85
2022/01/08 02:32:41;;;;;;;6.57;2.83;;;;;;;;;;6229968;28;20107;-87
2022/01/08 02:35:43;;;;;;;;;;;;;;;;;;6216740;28;20042;-86
2022/01/08 02:38:45;;;;;;;9.15;4.28;;;;;;;;;;6234871;28;20391;-86
2022/01/08 02:41:47;;;;;;;4.68;2.22;;;;;;;;;;6240245;28;20145;-86
2022/01/08 02:44:49;;;;;;;6.90;3.20;;;;;;;;;;6238961;28;20055;-87
2022/01/08 02:47:54;;;;;;;8.30;4.00;;;;;;;;;;6239370;28;20041;-86
2022/01/08 02:50:56;;;;;;;6.97;3.38;;;;;;;;;;6241973;28;20038;-86
2022/01/08 02:53:57;;;;;;;5.60;2.65;;;;;;;;;;6219180;28;20048;-87
2022/01/08 02:56:59;;;;;;;4.20;2.30;;;;;;;;;;6255639;28;20041;-87
2022/01/08 03:00:01;;;;;;;6.07;2.60;;;;;;;;;;6238412;28;20041;-87
2022/01/08 03:03:02;;;;;;;28.30;4.60;;;;;;;;;;6216962;28;20124;-86
2022/01/08 03:06:04;;;;;;;9.10;3.33;;;;;;;;;;6214228;28;20041;-87
2022/01/08 03:09:06;;;;;;;9.82;3.35;;;;;;;;;;6216057;28;20048;-86
2022/01/08 03:12:09;;;;;;;8.98;2.50;;;;;;;;;;6237182;28;20061;-88
2022/01/08 03:15:14;;;;;;;4.15;2.25;;;;;;;;;;6242120;28;20040;-87
2022/01/08 03:18:16;;;;;;;5.78;2.15;;;;;;;;;;6221262;28;20583;-86
2022/01/08 03:21:20;;;;;;;7.05;2.70;;;;;;;;;;6227150;28;20411;-86
2022/01/08 03:24:27;;;;;;;4.22;1.95;;;;;;;;;;6225260;28;20063;-87
2022/01/08 03:27:29;;;;;;;5.57;2.40;;;;;;;;;;6243235;28;20679;-87
2022/01/08 03:30:30;;;;;;;5.15;2.42;;;;;;;;;;6240901;28;20492;-86
2022/01/08 03:33:32;;;;;;;6.35;2.95;;;;;;;;;;6237614;28;20129;-86
2022/01/08 03:36:34;;;;;;;12.10;3.72;;;;;;;;;;6220063;28;20033;-87
2022/01/08 03:39:35;;;;;;;8.50;3.20;;;;;;;;;;6221107;28;20051;-87
2022/01/08 03:42:40;;;;;;;19.63;3.88;;;;;;;;;;6241248;28;20415;-87
2022/01/08 03:45:41;;;;;;;7.78;3.28;;;;;;;;;;6224547;28;20043;-87
2022/01/08 03:52:03;;;;;;;6.65;2.70;;;;;;;;;;6245260;28;20120;-86
2022/01/08 03:55:04;;;;;;;5.45;2.15;;;;;;;;;;6243163;28;20105;-86
2022/01/08 03:58:06;;;;;;;5.80;2.17;;;;;;;;;;6245676;28;20056;-87
2022/01/08 04:01:08;;;;;;;5.82;2.30;;;;;;;;;;6246037;28;20056;-87
2022/01/08 04:04:09;;;;;;;3.10;1.52;;;;;;;;;;6246296;28;20535;-87
2022/01/08 04:07:11;;;;;;;7.13;2.33;;;;;;;;;;6236366;28;20100;-87
2022/01/08 04:10:13;;;;;;;5.30;2.15;;;;;;;;;;6257425;28;20045;-87
2022/01/08 04:13:19;;;;;;;6.30;2.30;;;;;;;;;;6242777;28;20037;-86
2022/01/08 04:16:28;;;;;;;5.47;2.30;;;;;;;;;;6245606;28;20115;-86
2022/01/08 04:19:30;;;;;;;6.15;1.92;;;;;;;;;;6245140;28;20120;-86
2022/01/08 04:22:32;;;;;;;7.25;2.80;;;;;;;;;;6244842;28;20551;-86
2022/01/08 04:25:35;;;;;;;7.05;3.05;;;;;;;;;;6239708;28;20041;-86
2022/01/08 04:28:37;;;;;;;4.57;2.13;;;;;;;;;;6244683;28;20041;-86
2022/01/08 04:31:38;;;;;;;3.97;1.65;;;;;;;;;;6236195;28;20037;-87
2022/01/08 04:34:40;;;;;;;3.05;1.58;;;;;;;;;;6245370;28;20041;-85
2022/01/08 04:37:43;;;;;;;5.22;2.38;;;;;;;;;;6244882;28;20049;-87
2022/01/08 04:40:44;;;;;;;5.22;2.30;;;;;;;;;;6228037;28;20472;-86
2022/01/08 04:43:46;;;;;;;9.77;3.90;;;;;;;;;;6220719;28;20525;-87
2022/01/08 04:46:48;;;;;;;6.78;3.08;;;;;;;;;;6222318;28;20131;-86
2022/01/08 04:49:49;;;;;;;9.07;4.10;;;;;;;;;;6231869;28;20065;-87
2022/01/08 04:52:51;;;;;;;9.63;4.20;;;;;;;;;;6244200;28;20057;-86
2022/01/08 04:55:53;;;;;;;8.20;3.97;;;;;;;;;;6240407;28;20067;-86
2022/01/08 04:58:55;;;;;;;10.40;4.70;;;;;;;;;;6241632;28;20041;-86
2022/01/08 05:01:57;;;;;;;6.10;2.60;;;;;;;;;;6230531;28;20045;-87
2022/01/08 05:04:58;;;;;;;4.93;2.60;;;;;;;;;;6223108;28;20117;-86
2022/01/08 05:08:00;;;;;;;7.25;3.00;;;;;;;;;;6244239;28;20168;-87
2022/01/08 05:11:02;;;;;;;5.70;2.58;;;;;;;;;;6235042;28;20037;-87
2022/01/08 05:14:04;;;;;;;7.03;3.03;;;;;;;;;;6233346;28;20041;-86
2022/01/08 05:17:06;;;;;;;5.35;2.50;;;;;;;;;;6217327;28;20042;-86
2022/01/08 05:20:11;;;;;;;5.93;2.55;;;;;;;;;;6225020;28;20049;-87
2022/01/08 05:23:13;;;;;;;5.80;3.00;;;;;;;;;;6219623;28;20041;-87
2022/01/08 05:26:26;;;;;;;4.13;2.45;;;;;;;;;;6220332;28;20185;-87
2022/01/08 05:29:27;;;;;;;5.88;2.40;;;;;;;;;;6219812;28;20038;-86
2022/01/08 05:32:29;;;;;;;4.68;2.40;;;;;;;;;;6243582;28;20053;-86
2022/01/08 05:35:31;;;;;;;5.10;2.25;;;;;;;;;;6231380;28;20050;-86
2022/01/08 05:38:32;;;;;;;3.85;2.28;;;;;;;;;;6242464;28;20160;-86
2022/01/08 05:41:34;;;;;;;6.57;2.78;;;;;;;;;;6227899;28;20067;-85
2022/01/08 05:44:36;;;;;;;5.15;2.55;;;;;;;;;;6224978;28;20057;-87
2022/01/08 05:47:39;;;;;;;4.40;2.80;;;;;;;;;;6243166;28;20056;-86
2022/01/08 05:50:41;;;;;;;5.00;2.85;;;;;;;;;;6240962;28;20037;-86
2022/01/08 05:53:43;;;;;;;6.05;3.10;;;;;;;;;;6243314;28;20410;-85
2022/01/08 05:56:45;;;;;;;8.52;2.80;;;;;;;;;;6225994;28;20065;-87
2022/01/08 05:59:46;;;;;;;9.13;3.28;;;;;;;;;;6225202;28;20049;-84
2022/01/08 06:02:49;;;;;;;6.60;2.83;;;;;;;;;;6240473;28;20731;-87
2022/01/08 06:05:51;;;;;;;8.60;3.42;;;;;;;;;;6240433;28;20041;-86
2022/01/08 06:08:53;;;;;;;6.07;2.95;;;;;;;;;;6245037;28;20513;-86
2022/01/08 06:11:55;;;;;;;6.03;3.20;;;;;;;;;;6238042;28;20049;-86
2022/01/08 06:14:57;;;;;;;5.55;2.75;;;;;;;;;;6238657;28;20419;-86
2022/01/08 06:17:59;;;;;;;5.07;3.03;;;;;;;;;;6229019;28;20046;-86
2022/01/08 06:21:02;;;;;;;6.40;3.23;;;;;;;;;;6214776;28;20488;-85
2022/01/08 06:24:05;;;;;;;5.88;3.20;;;;;;;;;;6218930;28;20041;-87
2022/01/08 06:27:07;;;;;;;8.93;3.72;;;;;;;;;;6218419;28;20038;-86
2022/01/08 06:30:12;;;;;;;7.30;3.35;;;;;;;;;;6221713;28;20407;-85
2022/01/08 06:33:15;;;;;;;8.57;3.47;;;;;;;;;;6237873;28;20050;-86
2022/01/08 06:36:18;;;;;;;7.60;4.00;;;;;;;;;;6229840;28;20042;-87
2022/01/08 06:39:23;;;;;;;8.75;4.50;;;;;;;;;;6253394;28;20044;-85
2022/01/08 06:42:25;;;;;;;8.95;4.35;;;;;;;;;;6242751;28;21436;-85
2022/01/08 06:45:27;;;;;;;9.77;4.30;;;;;;;;;;6234208;28;20038;-86
2022/01/08 06:48:29;;;;;;;15.05;7.20;;;;;;;;;;6246801;28;20042;-86
2022/01/08 06:51:30;;;;;;;8.82;4.60;;;;;;;;;;6236794;28;20132;-86
2022/01/08 06:54:58;;;;;;;9.10;4.25;;;;;;;;;;6237657;28;20066;-86
2022/01/08 06:58:00;;;;;;;9.98;4.78;;;;;;;;;;6244578;28;20127;-86
2022/01/08 07:01:02;;;;;;;11.68;5.40;;;;;;;;;;6238516;28;20037;-84
2022/01/08 07:04:04;;;;;;;11.38;4.78;;;;;;;;;;6242018;28;20045;-85
2022/01/08 07:07:05;;;;;;;15.43;4.95;;;;;;;;;;6244702;28;20048;-86
2022/01/08 07:10:07;;;;;;;11.23;4.63;;;;;;;;;;6229264;28;20038;-86
2022/01/08 07:13:11;;;;;;;10.30;5.17;;;;;;;;;;6231038;28;20119;-86
2022/01/08 07:16:13;;;;;;;;;;;;;;;;;;6226742;28;20046;-85
2022/01/08 07:19:15;;;;;;;11.40;5.38;;;;;;;;;;6246794;28;20374;-86
2022/01/08 07:22:17;;;;;;;9.63;4.78;;;;;;;;;;6246259;28;20033;-87
2022/01/08 07:25:18;;;;;;;12.40;5.70;;;;;;;;;;6250724;28;20041;-86
2022/01/08 07:28:20;;;;;;;13.00;5.20;;;;;;;;;;6242693;28;20041;-87
2022/01/08 07:31:22;;;;;;;12.43;5.05;;;;;;;;;;6237064;28;20620;-86
2022/01/08 07:34:24;;;;;;;9.38;4.65;;;;;;;;;;6238123;28;20446;-86
2022/01/08 07:37:26;;;;;;;12.48;5.00;;;;;;;;;;6221981;28;20078;-87
2022/01/08 07:40:30;;;;;;;9.90;4.45;;;;;;;;;;6225120;28;20049;-85
2022/01/08 07:43:34;;;;;;;14.35;5.85;;;;;;;;;;6241159;28;20495;-85
2022/01/08 07:46:36;;;;;;;13.90;6.40;;;;;;;;;;6234754;28;20041;-86
2022/01/08 07:49:37;;;;;;;14.65;5.53;;;;;;;;;;6226834;28;20061;-86
2022/01/08 07:52:39;;;;;;;13.15;5.88;;;;;;;;;;6239353;28;20181;-86
2022/01/08 07:55:44;;;;;;;14.75;6.07;;;;;;;;;;6242596;28;20048;-86
2022/01/08 07:58:46;;;;;;;12.77;5.95;;;;;;;;;;6239636;28;20046;-86
2022/01/08 08:01:48;;;;;;;17.42;6.03;;;;;;;;;;6239844;28;20042;-85
2022/01/08 08:04:50;;;;;;;16.33;6.38;;;;;;;;;;6240943;28;20065;-87
2022/01/08 08:07:52;;;;;;;17.02;6.22;;;;;;;;;;6242244;28;20037;-86
2022/01/08 08:10:54;;;;;;;16.00;7.18;;;;;;;;;;6222522;28;20048;-87
2022/01/08 08:13:56;;;;;;;18.38;7.22;;;;;;;;;;6224236;28;20581;-87
2022/01/08 08:16:58;;;;;;;16.92;6.55;;;;;;;;;;6219838;28;20045;-87
2022/01/08 08:20:04;;;;;;;20.00;8.05;;;;;;;;;;6216258;28;20042;-86
2022/01/08 08:23:10;;;;;;;19.02;6.93;;;;;;;;;;6242659;28;20041;-86
2022/01/08 08:26:12;;;;;;;15.63;6.38;;;;;;;;;;6203274;28;20038;-85
2022/01/08 08:29:19;;;;;;;14.63;6.57;;;;;;;;;;6240190;28;20530;-87
2022/01/08 08:32:23;;;;;;;17.92;6.70;;;;;;;;;;6197104;28;20041;-86
2022/01/08 08:35:25;;;;;;;19.98;7.40;;;;;;;;;;6230493;28;20046;-86
2022/01/08 08:38:29;;;;;;;19.92;7.75;;;;;;;;;;6217554;28;20056;-86
2022/01/08 08:41:31;;;;;;;17.88;7.60;;;;;;;;;;6231674;28;20045;-85
2022/01/08 08:44:33;;;;;;;19.80;7.25;;;;;;;;;;6241510;28;20045;-86
2022/01/08 08:47:35;;;;;;;16.40;7.50;;;;;;;;;;6237675;28;20037;-86
2022/01/08 08:50:37;;;;;;;18.55;6.80;;;;;;;;;;6241085;28;20305;-85
2022/01/08 08:53:39;;;;;;;15.90;6.85;;;;;;;;;;6240603;28;20041;-87
2022/01/08 08:56:42;;;;;;;16.77;7.03;;;;;;;;;;6236303;28;20038;-85
2022/01/08 08:59:44;;;;;;;17.45;6.75;;;;;;;;;;6242359;28;20053;-86
2022/01/08 09:03:12;;;;;;;17.40;5.55;;;;;;;;;;6240920;28;20064;-87
2022/01/08 09:06:14;;;;;;;13.27;6.43;;;;;;;;;;6233920;28;20057;-87
2022/01/08 09:09:16;;;;;;;15.70;6.68;;;;;;;;;;6225602;28;20120;-85
2022/01/08 09:12:18;;;;;;;12.65;6.05;;;;;;;;;;6241526;28;20045;-86
2022/01/08 09:15:23;;;;;;;13.63;6.53;;;;;;;;;;6237464;28;20049;-86
2022/01/08 09:18:25;;;;;;;14.82;6.40;;;;;;;;;;6242952;28;20148;-86
2022/01/08 09:21:27;;;;;;;16.50;7.78;;;;;;;;;;6248219;28;20548;-86
2022/01/08 09:24:30;;;;;;;18.13;6.10;;;;;;;;;;6241420;28;20054;-86
2022/01/08 09:27:32;;;;;;;16.60;6.65;;;;;;;;;;6228109;28;20042;-87
2022/01/08 09:30:33;;;;;;;19.67;6.55;;;;;;;;;;6195176;28;20080;-87
2022/01/08 09:33:36;;;;;;;15.93;6.38;;;;;;;;;;6211305;28;20112;-87
2022/01/08 09:36:39;;;;;;;15.85;6.85;;;;;;;;;;6201303;28;20042;-87
2022/01/08 09:39:41;;;;;;;16.05;6.72;;;;;;;;;;6241591;28;20048;-87
2022/01/08 09:42:44;;;;;;;19.02;6.93;;;;;;;;;;6239394;28;20506;-85
2022/01/08 09:45:46;;;;;;;18.40;7.85;;;;;;;;;;6206738;28;20411;-86
2022/01/08 09:48:48;;;;;;;14.48;6.85;;;;;;;;;;6208497;28;20130;-85
2022/01/08 09:51:50;;;;;;;12.83;6.03;;;;;;;;;;6222686;28;20446;-86
2022/01/08 09:54:54;;;;;;;16.05;6.35;;;;;;;;;;6247004;28;20053;-86
2022/01/08 09:57:55;;;;;;;15.10;6.22;;;;;;;;;;6236423;28;20045;-86
2022/01/08 10:00:57;;;;;;;16.95;6.60;;;;;;;;;;6237675;28;20057;-86
2022/01/08 10:04:01;;;;;;;15.52;7.03;;;;;;;;;;6231898;28;20677;-86
2022/01/08 10:07:23;;;;;;;16.58;7.95;;;;;;;;;;6225178;28;20140;-84
2022/01/08 10:10:27;;;;;;;22.17;9.73;;;;;;;;;;6221136;28;20044;-85
2022/01/08 10:13:42;;;;;;;28.15;10.38;;;;;;;;;;6241318;28;20049;-85
2022/01/08 10:20:04;;;;;;;19.67;8.93;;;;;;;;;;6230334;28;20084;-86
2022/01/08 10:23:16;;;;;;;21.98;8.77;;;;;;;;;;6227959;28;20055;-86
2022/01/08 10:26:20;;;;;;;21.20;8.13;;;;;;;;;;6200812;28;20038;-86
2022/01/08 10:29:23;;;;;;;19.13;8.73;;;;;;;;;;6214179;28;20526;-86
2022/01/08 10:32:29;;;;;;;18.92;8.48;;;;;;;;;;6215192;28;20052;-88
2022/01/08 10:35:57;;;;;;;23.88;8.45;;;;;;;;;;6202663;28;20515;-86
2022/01/08 10:39:08;;;;;;;27.23;9.07;;;;;;;;;;6227452;28;20587;-86
2022/01/08 10:42:19;;;;;;;22.65;8.80;;;;;;;;;;6221956;28;20046;-86
2022/01/08 10:45:21;;;;;;;14.38;7.00;;;;;;;;;;6225049;28;20699;-87
2022/01/08 10:48:31;;;;;;;15.30;6.63;;;;;;;;;;6225378;28;20168;-85
2022/01/08 10:51:38;;;;;;;22.58;8.32;;;;;;;;;;6220918;28;20046;-86
2022/01/08 10:54:44;;;;;;;21.67;9.02;;;;;;;;;;6227756;28;20063;-85
2022/01/08 11:02:26;;;;;;;18.45;8.60;;;;;;;;;;6185276;28;20065;-86
2022/01/08 11:05:28;;;;;;;11.77;6.30;;;;;;;;;;6211561;28;20462;-87
2022/01/08 11:08:29;;;;;;;14.15;6.70;;;;;;;;;;6210523;28;20234;-85
2022/01/08 11:11:32;;;;;;;15.18;6.80;;;;;;;;;;6237773;28;20041;-87
2022/01/08 11:17:55;;;;;;;15.77;6.45;;;;;;;;;;6238455;28;20041;-86
2022/01/08 11:21:17;;;;;;;16.55;5.38;;;;;;;;;;6239892;28;20080;-86
2022/01/08 11:24:25;;;;;;;10.07;4.32;;;;;;;;;;6221885;28;20403;-84
2022/01/08 11:27:38;;;;;;;9.45;4.30;;;;;;;;;;6215195;28;20241;-86
2022/01/08 11:30:50;;;;;;;14.82;5.32;;;;;;;;;;6214170;28;20092;-87
2022/01/08 11:33:56;;;;;;;8.98;4.80;;;;;;;;;;6218368;28;20555;-86
2022/01/08 11:36:58;;;;;;;13.15;4.70;;;;;;;;;;6223889;28;20052;-84
2022/01/08 11:40:05;;;;;;;11.10;4.97;;;;;;;;;;6233992;28;20052;-85
2022/01/08 11:43:09;;;;;;;12.00;4.60;;;;;;;;;;6248779;28;20052;-87
2022/01/08 11:46:13;;;;;;;12.25;4.63;;;;;;;;;;6244850;28;20041;-87
2022/01/08 11:49:15;;;;;;;7.25;3.90;;;;;;;;;;6245021;28;20119;-87
2022/01/08 11:52:20;;;;;;;12.70;4.30;;;;;;;;;;6228851;28;20113;-87
2022/01/08 11:55:35;;;;;;;9.35;3.78;;;;;;;;;;6229630;28;20446;-87
2022/01/08 11:58:38;;;;;;;7.13;3.63;;;;;;;;;;6241061;28;20053;-87
2022/01/08 12:01:46;;;;;;;7.65;4.53;;;;;;;;;;6224374;28;20053;-85
2022/01/08 12:04:52;;;;;;;7.68;3.67;;;;;;;;;;6230571;28;20120;-87
2022/01/08 12:08:14;;;;;;;8.23;3.53;;;;;;;;;;6209921;28;20080;-88
2022/01/08 12:11:16;;;;;;;5.70;2.90;;;;;;;;;;6240817;28;20115;-86
2022/01/08 12:14:26;;;;;;;8.85;3.42;;;;;;;;;;6240611;28;20182;-86
2022/01/08 12:17:28;;;;;;;7.40;3.20;;;;;;;;;;6238276;28;20037;-86
2022/01/08 12:20:46;;;;;;;10.27;3.00;;;;;;;;;;6235616;28;20162;-87
2022/01/08 12:23:48;;;;;;;10.20;4.47;;;;;;;;;;6228775;28;20057;-88
2022/01/08 12:26:50;;;;;;;8.73;3.75;;;;;;;;;;6236395;28;20046;-85
2022/01/08 12:29:51;;;;;;;9.65;4.13;;;;;;;;;;6228723;28;20050;-87
2022/01/08 12:33:14;;;;;;;10.18;4.28;;;;;;;;;;6231803;28;20049;-87
2022/01/08 12:36:31;;;;;;;8.95;3.72;;;;;;;;;;6240579;28;20045;-87
2022/01/08 12:39:42;;;;;;;10.23;4.53;;;;;;;;;;6235399;28;20970;-87
2022/01/08 12:42:45;;;;;;;13.57;4.53;;;;;;;;;;6225934;28;20071;-87
2022/01/08 12:45:50;;;;;;;;;;;;;;;;;;6239997;28;20049;-88
2022/01/08 12:49:16;;;;;;;8.70;3.55;;;;;;;;;;6237675;28;20032;-86
2022/01/08 12:52:18;;;;;;;8.73;3.38;;;;;;;;;;6238918;28;20056;-88
2022/01/08 12:55:20;;;;;;;10.43;3.65;;;;;;;;;;6237749;28;20434;-88
2022/01/08 12:58:40;;;;;;;9.52;3.55;;;;;;;;;;6236648;28;20057;-87
2022/01/08 13:01:47;;;;;;;8.35;4.07;;;;;;;;;;6238652;28;20453;-87
2022/01/08 13:04:52;;;;;;;10.55;4.32;;;;;;;;;;6238734;28;20037;-88
2022/01/08 13:07:54;;;;;;;12.13;5.35;;;;;;;;;;6238653;28;20600;-88
2022/01/08 13:11:10;;;;;;;9.45;3.72;;;;;;;;;;6216383;28;20050;-88
2022/01/08 13:14:17;;;;;;;8.95;3.70;;;;;;;;;;6217820;28;20136;-87
2022/01/08 13:17:22;;;;;;;8.23;3.10;;;;;;;;;;6236888;28;20436;-86
2022/01/08 13:20:26;;;;;;;6.80;3.92;;;;;;;;;;6235002;28;20444;-86
2022/01/08 13:23:28;;;;;;;13.73;5.90;;;;;;;;;;6225172;28;20045;-86
2022/01/08 13:26:42;;;;;;;11.07;4.70;;;;;;;;;;6245589;28;20063;-87
2022/01/08 13:29:44;;;;;;;;;;;;;;;;;;6239847;28;20047;-84
2022/01/08 13:33:04;;;;;;;9.07;4.63;;;;;;;;;;6226266;28;19928;-84
2022/01/08 13:36:12;;;;;;;11.80;4.90;;;;;;;;;;6221547;28;20124;-86
2022/01/08 13:39:27;;;;;;;14.50;5.38;;;;;;;;;;6245226;28;20038;-84
2022/01/08 13:42:32;;;;;;;13.13;5.35;;;;;;;;;;6230895;28;20049;-86
2022/01/08 13:45:33;;;;;;;9.70;4.30;;;;;;;;;;6242050;28;20057;-86
2022/01/08 13:48:35;;;;;;;14.25;4.78;;;;;;;;;;6240202;28;20403;-85
2022/01/08 13:51:38;;;;;;;11.30;4.32;;;;;;;;;;6238439;28;20129;-85
2022/01/08 13:54:40;;;;;;;8.45;4.57;;;;;;;;;;6244981;28;20055;-85
2022/01/08 13:57:45;;;;;;;9.60;3.75;;;;;;;;;;6218604;28;20061;-84
2022/01/08 14:00:52;;;;;;;9.93;4.40;;;;;;;;;;6213473;28;20112;-85
2022/01/08 14:03:54;;;;;;;11.60;4.63;;;;;;;;;;6240276;28;20048;-85
2022/01/08 14:06:58;;;;;;;9.45;4.00;;;;;;;;;;6241307;28;20038;-85
2022/01/08 14:10:00;;;;;;;14.20;6.00;;;;;;;;;;6237751;28;20057;-84
2022/01/08 14:13:07;;;;;;;10.05;5.20;;;;;;;;;;6249481;28;20086;-83
2022/01/08 14:16:11;;;;;;;12.18;5.60;;;;;;;;;;6239322;28;20041;-86
2022/01/08 14:19:20;;;;;;;9.57;5.25;;;;;;;;;;6238980;28;20111;-86
2022/01/08 14:22:27;;;;;;;11.48;4.43;;;;;;;;;;6245935;28;20439;-85
2022/01/08 14:25:33;;;;;;;13.43;6.55;;;;;;;;;;6224768;28;20112;-85
2022/01/08 14:28:37;;;;;;;9.40;4.38;;;;;;;;;;6216671;28;20075;-85
2022/01/08 14:31:39;;;;;;;10.80;5.53;;;;;;;;;;6225054;28;20042;-84
2022/01/08 14:35:01;;;;;;;12.27;5.95;;;;;;;;;;6215758;28;20042;-86
2022/01/08 14:38:03;;;;;;;14.35;4.97;;;;;;;;;;6233741;28;20080;-85
2022/01/08 14:41:04;;;;;;;10.63;5.05;;;;;;;;;;6239811;28;20037;-84
2022/01/08 14:44:06;;;;;;;14.13;5.13;;;;;;;;;;6237159;28;20065;-86
2022/01/08 14:47:49;;;;;;;8.70;5.03;;;;;;;;;;6234674;28;20061;-86
2022/01/08 14:50:51;;;;;;;11.18;5.10;;;;;;;;;;6226416;28;20519;-85
2022/01/08 14:53:53;;;;;;;7.93;4.75;;;;;;;;;;6235907;28;20141;-86
2022/01/08 14:56:56;;;;;;;7.68;3.60;;;;;;;;;;6213468;28;20125;-85
2022/01/08 14:59:59;;;;;;;7.55;4.72;;;;;;;;;;6214069;28;20168;-86
2022/01/08 15:03:02;;;;;;;10.52;4.50;;;;;;;;;;6218208;28;20121;-85
2022/01/08 15:06:04;;;;;;;10.50;4.93;;;;;;;;;;6212703;28;20049;-85
2022/01/08 15:09:06;;;;;;;8.18;4.03;;;;;;;;;;6221112;28;20041;-86
2022/01/08 15:12:08;;;;;;;11.32;4.93;;;;;;;;;;6239744;28;20041;-86
2022/01/08 15:15:13;;;;;;;12.82;5.30;;;;;;;;;;6250623;28;20112;-87
2022/01/08 15:18:24;;;;;;;10.73;4.80;;;;;;;;;;6239729;28;20622;-87
2022/01/08 15:21:26;;;;;;;11.68;4.30;;;;;;;;;;6229186;28;20112;-87
2022/01/08 15:24:35;;;;;;;8.88;4.50;;;;;;;;;;6231160;28;20518;-87
2022/01/08 15:27:37;;;;;;;15.15;6.88;;;;;;;;;;6223795;28;20053;-86
2022/01/08 15:30:47;;;;;;;26.30;11.30;;;;;;;;;;6260308;28;20050;-86
2022/01/08 15:34:19;;;;;;;10.55;5.30;;;;;;;;;;6238395;28;20117;-87
2022/01/08 15:37:21;;;;;;;10.57;5.53;;;;;;;;;;6229739;28;20060;-86
2022/01/08 15:40:24;;;;;;;11.30;5.60;;;;;;;;;;6220120;28;20053;-84
2022/01/08 15:43:48;;;;;;;10.60;5.75;;;;;;;;;;6231770;28;20316;-87
2022/01/08 15:46:50;;;;;;;;;;;;;;;;;;6233845;28;20602;-86
2022/01/08 15:49:55;;;;;;;17.50;7.88;;;;;;;;;;6239067;28;19921;-86
2022/01/08 15:52:58;;;;;;;;;;;;;;;;;;6230733;28;20165;-86
2022/01/08 15:56:07;;;;;;;11.45;5.25;;;;;;;;;;6221891;28;19932;-86
2022/01/08 15:59:09;;;;;;;6.82;3.95;;;;;;;;;;6229332;28;20079;-85
2022/01/08 16:02:11;;;;;;;7.00;4.55;;;;;;;;;;6239213;28;20504;-86
2022/01/08 16:05:30;;;;;;;8.82;4.13;;;;;;;;;;6249897;28;20125;-86
2022/01/08 16:09:00;;;;;;;8.50;5.15;;;;;;;;;;6204062;28;20045;-86
2022/01/08 16:12:30;;;;;;;7.63;4.57;;;;;;;;;;6211715;28;20053;-84
2022/01/08 16:15:54;;;;;;;8.98;5.03;;;;;;;;;;6229606;28;20081;-85
2022/01/08 16:19:46;;;;;;;10.60;5.53;;;;;;;;;;6204070;28;20054;-84
2022/01/08 16:23:31;;;;;;;10.05;4.75;;;;;;;;;;6214715;28;20061;-86
2022/01/08 16:26:36;;;;;;;10.18;4.82;;;;;;;;;;6189540;28;20061;-86
2022/01/08 16:29:38;;;;;;;11.32;5.82;;;;;;;;;;6222154;28;20056;-86
2022/01/08 16:32:40;;;;;;;11.25;5.25;;;;;;;;;;6225936;28;20057;-86
2022/01/08 16:35:45;;;;;;;11.65;6.28;;;;;;;;;;6165342;28;20465;-87
2022/01/08 16:42:50;;;;;;;9.90;5.82;;;;;;;;;;6160036;28;20077;-86
2022/01/08 16:45:52;;;;;;;13.52;6.38;;;;;;;;;;6201433;28;20627;-86
2022/01/08 16:48:54;;;;;;;11.48;7.10;;;;;;;;;;6206829;28;20045;-85
2022/01/08 16:51:56;;;;;;;10.98;6.43;;;;;;;;;;6225355;28;20057;-86
2022/01/08 16:54:58;;;;;;;7.03;4.90;;;;;;;;;;6224563;28;20045;-86
2022/01/08 16:58:25;;;;;;;7.68;5.13;;;;;;;;;;6228379;28;20046;-86
2022/01/08 17:01:28;;;;;;;8.25;4.82;;;;;;;;;;6228588;28;20084;-84
2022/01/08 17:04:33;;;;;;;;;;;;;;;;;;6233930;28;20049;-86
2022/01/08 17:07:35;;;;;;;6.70;3.95;;;;;;;;;;6222792;28;19932;-85
2022/01/08 17:10:41;;;;;;;7.22;3.67;;;;;;;;;;6205001;28;20061;-86
2022/01/08 17:13:43;;;;;;;7.43;4.55;;;;;;;;;;6209614;28;20057;-86
2022/01/08 17:16:45;;;;;;;7.30;3.80;;;;;;;;;;6201099;28;20115;-86
2022/01/08 17:19:49;;;;;;;6.68;4.50;;;;;;;;;;6219377;28;20056;-86
2022/01/08 17:22:57;;;;;;;8.48;4.45;;;;;;;;;;6208211;28;20053;-85
2022/01/08 17:26:00;;;;;;;9.23;4.72;;;;;;;;;;6214041;28;20100;-86
2022/01/08 17:29:03;;;;;;;5.68;3.67;;;;;;;;;;6195388;28;20131;-85
2022/01/08 17:32:05;;;;;;;16.87;8.57;;;;;;;;;;6218146;28;20046;-86
2022/01/08 17:35:08;;;;;;;23.60;10.88;;;;;;;;;;6195050;28;20518;-86
2022/01/08 17:38:11;;;;;;;7.53;4.90;;;;;;;;;;6204089;28;20116;-85
2022/01/08 17:41:13;;;;;;;;;;;;;;;;;;6194710;28;20052;-86
2022/01/08 17:47:50;;;;;;;14.98;7.95;;;;;;;;;;6174648;28;20141;-79
2022/01/08 17:50:51;;;;;;;19.15;9.98;;;;;;;;;;6210592;28;20045;-81
2022/01/08 17:53:55;;;;;;;11.00;7.22;;;;;;;;;;6225810;28;20526;-82
2022/01/08 17:56:56;;;;;;;8.13;4.20;;;;;;;;;;6240699;28;20123;-81
2022/01/08 18:00:10;;;;;;;21.48;11.15;;;;;;;;;;6237617;28;20053;-82
2022/01/08 18:03:12;;;;;;;13.93;7.97;;;;;;;;;;6215517;28;20530;-81
2022/01/08 18:06:15;;;;;;;9.48;5.60;;;;;;;;;;6214715;28;20054;-82
2022/01/08 18:09:18;;;;;;;14.98;9.00;;;;;;;;;;6216162;28;20066;-82
2022/01/08 18:12:20;;;;;;;13.52;7.93;;;;;;;;;;6202553;28;20120;-81
2022/01/08 18:15:22;;;;;;;10.93;6.03;;;;;;;;;;6237543;28;20075;-83
2022/01/08 18:18:24;;;;;;;5.88;3.95;;;;;;;;;;6215602;28;20046;-80
2022/01/08 18:21:25;;;;;;;15.07;7.70;;;;;;;;;;6214823;28;20050;-81
2022/01/08 18:24:28;;;;;;;7.93;5.00;;;;;;;;;;6216292;28;20045;-83
2022/01/08 18:27:30;;;;;;;9.57;5.30;;;;;;;;;;6218363;28;20136;-82
2022/01/08 18:30:31;;;;;;;12.25;6.05;;;;;;;;;;6235366;28;20129;-83
2022/01/08 18:33:39;;;;;;;16.63;8.63;;;;;;;;;;6214592;28;20041;-81
2022/01/08 18:36:40;;;;;;;14.73;8.07;;;;;;;;;;6226841;28;20037;-81
2022/01/08 18:39:42;;;;;;;15.48;9.07;;;;;;;;;;6229236;28;20148;-84
2022/01/08 18:42:45;;;;;;;11.50;7.82;;;;;;;;;;6231116;28;20053;-82
2022/01/08 18:45:47;;;;;;;9.48;5.30;;;;;;;;;;6233721;28;20052;-79
2022/01/08 18:48:49;;;;;;;10.70;6.05;;;;;;;;;;6240166;28;20459;-81
2022/01/08 18:51:51;;;;;;;6.90;4.57;;;;;;;;;;6239686;28;20055;-82
2022/01/08 18:54:52;;;;;;;6.97;4.78;;;;;;;;;;6233101;28;20063;-81
2022/01/08 18:57:54;;;;;;;5.80;4.00;;;;;;;;;;6215393;28;20119;-78
2022/01/08 19:00:56;;;;;;;9.73;6.28;;;;;;;;;;6214868;28;20117;-79
2022/01/08 19:03:57;;;;;;;12.73;6.57;;;;;;;;;;6198363;28;20592;-81
2022/01/08 19:07:02;;;;;;;10.75;5.88;;;;;;;;;;6218750;28;20151;-81